Time;durP1;ratioP1;P1;durP2;ratioP2;P2;SDS_P1;SDS_P2;PMS_P1;PMS_P2;Temp;Humidity;BMP_temperature;BMP_pressure;BME280_temperature;BME280_humidity;BME280_pressure;Samples;Min_cycle;Max_cycle;Signal;HPM_P1;HPM_P2
2023/10/16 00:02:12;;;;;;;2.03;1.00;;;5.10;1.00;;;;;;4955320;28;20471;-85
2023/10/16 00:04:43;;;;;;;1.17;1.02;;;5.30;1.00;;;;;;4954790;28;20406;-85
2023/10/16 00:07:27;;;;;;;2.63;1.27;;;5.00;1.00;;;;;;4954169;28;20856;-85
2023/10/16 00:09:55;;;;;;;1.50;0.80;;;5.20;1.00;;;;;;4954089;28;20492;-85
2023/10/16 00:12:21;;;;;;;1.63;0.90;;;5.20;1.00;;;;;;4953895;28;20385;-85
2023/10/16 00:14:46;;;;;;;2.40;1.33;;;5.10;1.00;;;;;;4957350;28;20402;-85
2023/10/16 00:17:14;;;;;;;1.40;1.20;;;5.00;1.00;;;;;;4991247;28;20465;-84
2023/10/16 00:19:44;;;;;;;1.42;1.15;;;5.10;1.00;;;;;;4983513;28;20396;-84
2023/10/16 00:22:15;;;;;;;1.58;0.90;;;5.20;1.00;;;;;;4971272;28;20407;-84
2023/10/16 00:24:47;;;;;;;1.20;0.90;;;5.20;1.00;;;;;;4964732;28;20403;-85
2023/10/16 00:27:16;;;;;;;3.65;1.38;;;5.30;1.00;;;;;;4973651;28;21060;-84
2023/10/16 00:29:45;;;;;;;1.90;1.30;;;5.10;1.00;;;;;;4974750;28;20915;-85
2023/10/16 00:32:11;;;;;;;1.52;1.00;;;5.10;1.00;;;;;;4975433;28;20388;-84
2023/10/16 00:34:38;;;;;;;3.40;1.02;;;5.20;1.00;;;;;;4959025;28;20439;-84
2023/10/16 00:37:04;;;;;;;1.40;0.80;;;5.10;1.00;;;;;;4959742;28;20463;-84
2023/10/16 00:39:35;;;;;;;2.30;1.07;;;5.00;1.00;;;;;;4959561;28;20997;-84
2023/10/16 00:42:01;;;;;;;2.50;1.20;;;4.80;1.00;;;;;;4974733;28;20769;-84
2023/10/16 00:44:33;;;;;;;1.40;1.00;;;5.00;1.00;;;;;;4974561;28;20416;-84
2023/10/16 00:47:01;;;;;;;0.90;0.70;;;4.90;1.00;;;;;;4964460;28;20423;-84
2023/10/16 00:49:28;;;;;;;1.90;1.10;;;5.10;1.00;;;;;;4957383;28;20432;-85
2023/10/16 00:51:54;;;;;;;2.65;1.15;;;5.10;1.00;;;;;;4962089;28;20394;-85
2023/10/16 00:54:28;;;;;;;1.40;1.00;;;5.20;1.00;;;;;;4988369;28;20471;-85
2023/10/16 00:56:57;;;;;;;1.80;1.00;;;5.20;1.00;;;;;;4957843;28;20750;-85
2023/10/16 00:59:23;;;;;;;1.92;1.23;;;5.20;1.00;;;;;;4957558;28;20396;-85
2023/10/16 01:01:52;;;;;;;1.60;1.20;;;5.10;1.00;;;;;;4974470;28;20987;-85
2023/10/16 01:04:20;;;;;;;1.52;0.90;;;5.30;1.00;;;;;;4963524;28;20411;-85
2023/10/16 01:06:46;;;;;;;1.70;1.00;;;5.20;1.00;;;;;;4956871;28;20432;-85
2023/10/16 01:09:24;;;;;;;1.40;0.98;;;5.40;1.00;;;;;;4957297;28;20419;-85
2023/10/16 01:11:51;;;;;;;2.67;1.10;;;5.40;1.00;;;;;;4957318;28;20928;-85
2023/10/16 01:14:17;;;;;;;1.43;0.80;;;5.40;1.00;;;;;;4959383;28;20408;-85
2023/10/16 01:16:43;;;;;;;2.10;1.25;;;5.30;1.00;;;;;;4958328;28;20463;-85
2023/10/16 01:19:10;;;;;;;2.17;1.00;;;5.40;1.00;;;;;;4973225;28;20396;-85
2023/10/16 01:21:36;;;;;;;1.00;0.70;;;5.40;1.00;;;;;;4966999;28;20402;-85
2023/10/16 01:24:14;;;;;;;1.25;0.95;;;5.10;1.00;;;;;;4978226;28;20446;-85
2023/10/16 01:26:41;;;;;;;2.20;1.20;;;5.50;1.00;;;;;;4978081;28;20403;-85
2023/10/16 01:29:08;;;;;;;1.10;0.90;;;5.50;1.00;;;;;;4969430;28;20826;-85
2023/10/16 01:31:36;;;;;;;1.10;1.00;;;5.60;1.00;;;;;;4974348;28;20390;-85
2023/10/16 01:34:02;;;;;;;1.63;1.00;;;5.50;1.00;;;;;;4975805;28;20485;-85
2023/10/16 01:36:30;;;;;;;1.10;1.00;;;5.70;1.00;;;;;;4957465;28;20412;-84
2023/10/16 01:38:59;;;;;;;1.83;1.00;;;5.50;1.00;;;;;;4956772;28;20412;-84
2023/10/16 01:41:25;;;;;;;1.20;1.10;;;5.40;1.00;;;;;;4974129;28;20392;-85
2023/10/16 01:43:52;;;;;;;2.13;1.05;;;5.30;1.00;;;;;;4957174;28;20415;-84
2023/10/16 01:46:18;;;;;;;2.75;1.10;;;5.30;1.00;;;;;;4956721;28;20432;-84
2023/10/16 01:48:45;;;;;;;1.70;0.90;;;5.50;1.00;;;;;;4957177;28;20423;-84
2023/10/16 01:51:20;;;;;;;1.50;1.00;;;5.50;1.00;;;;;;4956209;28;20495;-84
2023/10/16 01:53:50;;;;;;;2.07;0.97;;;5.50;1.00;;;;;;4945448;28;20435;-84
2023/10/16 01:56:17;;;;;;;2.60;1.30;;;5.40;1.00;;;;;;4973842;28;20388;-84
2023/10/16 01:58:45;;;;;;;1.70;1.10;;;5.40;1.00;;;;;;4956540;28;20471;-84
2023/10/16 02:01:12;;;;;;;0.95;0.90;;;5.20;1.00;;;;;;4973320;28;20404;-85
2023/10/16 02:03:43;;;;;;;2.10;1.30;;;5.20;1.00;;;;;;4973680;28;20467;-84
2023/10/16 02:06:11;;;;;;;1.50;1.00;;;5.10;1.00;;;;;;4955765;28;20399;-84
2023/10/16 02:08:37;;;;;;;1.30;1.08;;;5.40;1.00;;;;;;4955244;28;20428;-84
2023/10/16 02:11:02;;;;;;;1.40;1.20;;;5.30;1.00;;;;;;4971938;28;20439;-84
2023/10/16 02:13:30;;;;;;;1.90;1.07;;;5.20;1.00;;;;;;4972276;28;20588;-85
2023/10/16 02:15:56;;;;;;;1.77;1.20;;;5.30;1.00;;;;;;4955518;28;20501;-84
2023/10/16 02:18:27;;;;;;;1.50;1.20;;;5.30;1.00;;;;;;4972304;28;20495;-85
2023/10/16 02:20:53;;;;;;;1.67;0.80;;;5.40;1.00;;;;;;4973400;28;20406;-84
2023/10/16 02:23:19;;;;;;;1.58;1.00;;;5.40;1.00;;;;;;4973179;28;20412;-85
2023/10/16 02:25:45;;;;;;;2.30;1.07;;;5.50;1.00;;;;;;4955476;28;20476;-85
2023/10/16 02:28:13;;;;;;;1.80;1.05;;;5.50;1.00;;;;;;4956209;28;20396;-84
2023/10/16 02:30:40;;;;;;;4.60;1.50;;;5.40;1.00;;;;;;4973327;28;20790;-86
2023/10/16 02:36:00;;;;;;;1.30;1.00;;;5.20;1.00;;;;;;4982168;28;20396;-85
2023/10/16 02:38:28;;;;;;;2.25;1.15;;;5.30;1.00;;;;;;4956633;28;20769;-85
2023/10/16 02:41:00;;;;;;;2.40;1.13;;;5.40;1.00;;;;;;4955600;28;20411;-84
2023/10/16 02:43:26;;;;;;;2.40;1.10;;;5.30;1.00;;;;;;4955734;28;20408;-84
2023/10/16 02:45:52;;;;;;;1.90;1.30;;;5.20;1.00;;;;;;4954440;28;20416;-85
2023/10/16 02:48:21;;;;;;;2.00;1.20;;;5.40;1.00;;;;;;4973265;28;20388;-84
2023/10/16 02:50:53;;;;;;;1.40;1.00;;;5.60;1.00;;;;;;4955317;28;20388;-84
2023/10/16 02:53:23;;;;;;;1.20;0.90;;;5.40;1.00;;;;;;4972304;28;20443;-84
2023/10/16 02:55:53;;;;;;;1.20;1.10;;;5.40;1.00;;;;;;4972717;28;20422;-85
2023/10/16 02:58:22;;;;;;;2.65;1.05;;;5.40;1.00;;;;;;4956191;28;20486;-86
2023/10/16 03:00:53;;;;;;;1.25;1.00;;;5.30;1.00;;;;;;4974386;28;20463;-85
2023/10/16 03:03:19;;;;;;;2.72;1.35;;;5.40;1.00;;;;;;4955492;28;20443;-85
2023/10/16 03:05:45;;;;;;;1.30;1.00;;;5.40;1.00;;;;;;4955445;28;20812;-85
2023/10/16 03:08:12;;;;;;;1.80;1.00;;;4.90;1.00;;;;;;4954782;28;20404;-85
2023/10/16 03:10:40;;;;;;;1.58;0.90;;;5.40;1.00;;;;;;4955033;28;20487;-86
2023/10/16 03:13:06;;;;;;;1.30;0.90;;;5.30;1.00;;;;;;4972179;28;20397;-85
2023/10/16 03:15:47;;;;;;;1.40;1.00;;;5.30;1.00;;;;;;4954982;28;20435;-85
2023/10/16 03:18:22;;;;;;;2.00;1.17;;;5.20;1.00;;;;;;4964538;28;20400;-85
2023/10/16 03:20:48;;;;;;;1.73;1.13;;;5.20;1.00;;;;;;4977657;28;20772;-85
2023/10/16 03:23:14;;;;;;;1.65;1.02;;;5.20;1.00;;;;;;4994500;28;20408;-85
2023/10/16 03:28:11;;;;;;;2.40;1.20;;;5.20;1.00;;;;;;4972452;28;20439;-85
2023/10/16 03:30:37;;;;;;;2.75;1.10;;;5.20;1.00;;;;;;4954857;28;20393;-85
2023/10/16 03:33:03;;;;;;;1.67;1.15;;;5.10;1.00;;;;;;4954877;28;20392;-86
2023/10/16 03:35:34;;;;;;;1.63;1.23;;;5.00;1.00;;;;;;4955110;28;20400;-84
2023/10/16 03:38:08;;;;;;;1.13;1.00;;;4.90;1.00;;;;;;4955110;28;20408;-85
2023/10/16 03:40:34;;;;;;;1.60;1.13;;;5.10;1.00;;;;;;4955397;28;20399;-85
2023/10/16 03:42:59;;;;;;;1.67;1.20;;;5.10;1.00;;;;;;4954632;28;20475;-85
2023/10/16 03:45:26;;;;;;;1.00;0.90;;;5.20;1.00;;;;;;4955246;28;20404;-85
2023/10/16 03:48:00;;;;;;;1.60;1.23;;;5.20;1.00;;;;;;4972486;28;20396;-85
2023/10/16 03:50:26;;;;;;;2.30;0.90;;;5.00;1.00;;;;;;4972571;28;20434;-85
2023/10/16 03:52:54;;;;;;;2.30;1.10;;;5.20;1.00;;;;;;4954577;28;20510;-84
2023/10/16 03:55:28;;;;;;;1.20;1.10;;;5.30;1.00;;;;;;4953905;28;20408;-85
2023/10/16 03:57:55;;;;;;;2.03;1.20;;;5.10;1.00;;;;;;4957604;28;20414;-85
2023/10/16 04:00:33;;;;;;;3.55;1.23;;;5.20;1.00;;;;;;4960925;28;21141;-85
2023/10/16 04:02:59;;;;;;;1.33;1.20;;;5.20;1.00;;;;;;4961012;28;20424;-85
2023/10/16 04:05:45;;;;;;;2.83;1.17;;;5.20;1.00;;;;;;4978249;28;20391;-85
2023/10/16 04:08:23;;;;;;;1.10;1.00;;;5.10;1.00;;;;;;4961192;28;20399;-85
2023/10/16 04:10:53;;;;;;;1.58;1.00;;;5.20;1.00;;;;;;4960908;28;20914;-85
2023/10/16 04:13:19;;;;;;;1.30;1.10;;;5.20;1.00;;;;;;4961148;28;20775;-85
2023/10/16 04:15:59;;;;;;;3.50;1.50;;;5.10;1.00;;;;;;4961490;28;20519;-85
2023/10/16 04:47:48;;;;;;;1.30;1.20;;;4.90;1.00;;;;;;4978374;28;20804;-85
2023/10/16 04:50:27;;;;;;;1.58;1.00;;;5.00;1.00;;;;;;4960887;28;20404;-85
2023/10/16 05:00:57;;;;;;;1.40;1.27;;;4.80;1.00;;;;;;4986907;28;20399;-85
2023/10/16 05:13:17;;;;;;;2.05;1.60;;;4.80;1.00;;;;;;5010269;28;20397;-85
2023/10/16 06:14:13;;;;;;;3.13;2.50;;;4.60;1.00;;;;;;4985256;28;20406;-84
2023/10/16 06:16:39;;;;;;;5.50;3.13;;;4.50;1.00;;;;;;4965645;28;20518;-85
2023/10/16 06:19:14;;;;;;;5.55;2.88;;;4.60;1.00;;;;;;4962002;28;20901;-85
2023/10/16 06:21:48;;;;;;;3.30;2.25;;;6.80;1.00;;;;;;4966686;28;20402;-85
2023/10/16 06:24:33;;;;;;;3.85;2.42;;;4.90;1.00;;;;;;4967756;28;20419;-85
2023/10/16 06:27:00;;;;;;;3.88;2.58;;;4.90;1.00;;;;;;4956833;28;20404;-85
2023/10/16 06:29:35;;;;;;;4.70;2.70;;;5.80;1.00;;;;;;4973573;28;20403;-84
2023/10/16 06:32:07;;;;;;;2.72;2.45;;;4.80;1.00;;;;;;4979616;28;20501;-86
2023/10/16 06:34:33;;;;;;;2.60;2.40;;;4.10;1.00;;;;;;4978710;28;20411;-85
2023/10/16 06:37:05;;;;;;;5.40;3.15;;;4.80;1.00;;;;;;4956619;28;20419;-85
2023/10/16 06:39:35;;;;;;;3.20;2.90;;;4.90;1.00;;;;;;4958760;28;20927;-86
2023/10/16 06:42:02;;;;;;;7.00;3.92;;;5.00;1.00;;;;;;4962136;28;20422;-85
2023/10/16 06:44:28;;;;;;;3.67;3.13;;;5.20;1.00;;;;;;4986510;28;20417;-85
2023/10/16 06:47:00;;;;;;;5.65;3.40;;;5.30;1.00;;;;;;4968575;28;20898;-85
2023/10/16 06:49:35;;;;;;;3.15;2.85;;;5.40;1.00;;;;;;4975743;28;20429;-85
2023/10/16 06:52:04;;;;;;;5.88;2.90;;;5.30;1.00;;;;;;4957306;28;20910;-86
2023/10/16 06:54:31;;;;;;;4.95;2.70;;;5.30;1.00;;;;;;4969524;28;20826;-85
2023/10/16 06:57:04;;;;;;;4.28;3.40;;;5.20;1.00;;;;;;4968087;28;20461;-85
2023/10/16 06:59:31;;;;;;;4.60;3.00;;;5.40;1.00;;;;;;4967707;28;20405;-85
2023/10/16 07:01:57;;;;;;;4.40;3.60;;;5.10;1.00;;;;;;4974201;28;20414;-85
2023/10/16 07:04:22;;;;;;;3.30;3.00;;;5.20;1.00;;;;;;4983668;28;20414;-86
2023/10/16 07:06:48;;;;;;;6.77;3.80;;;5.30;1.00;;;;;;4963820;28;20770;-85
2023/10/16 07:09:16;;;;;;;4.47;3.80;;;5.20;1.00;;;;;;4973242;28;20481;-85
2023/10/16 07:11:42;;;;;;;4.33;3.90;;;5.20;1.00;;;;;;4971349;28;20491;-84
2023/10/16 07:14:12;;;;;;;5.20;3.70;;;5.30;1.00;;;;;;4968648;28;20388;-85
2023/10/16 07:16:39;;;;;;;4.80;3.70;;;5.20;1.00;;;;;;4974185;28;20408;-84
2023/10/16 07:19:07;;;;;;;4.40;3.95;;;5.20;1.00;;;;;;4957283;28;20419;-86
2023/10/16 07:21:33;;;;;;;5.85;4.35;;;5.20;1.00;;;;;;4957216;28;20411;-86
2023/10/16 07:23:58;;;;;;;6.13;4.33;;;5.10;1.00;;;;;;4955026;28;20416;-86
2023/10/16 07:26:26;;;;;;;5.30;4.33;;;5.30;1.00;;;;;;4956021;28;20404;-86
2023/10/16 07:28:52;;;;;;;5.30;4.80;;;5.30;1.00;;;;;;4964936;28;20959;-86
2023/10/16 07:31:17;;;;;;;5.53;4.10;;;5.30;1.00;;;;;;4975082;28;20396;-86
2023/10/16 07:33:59;;;;;;;4.32;3.75;;;5.30;1.00;;;;;;4981345;28;20437;-86
2023/10/16 07:36:25;;;;;;;6.47;5.10;;;5.40;1.00;;;;;;4984354;28;20395;-86
2023/10/16 07:38:51;;;;;;;10.88;6.88;;;5.40;1.00;;;;;;4971419;28;20487;-85
2023/10/16 07:41:23;;;;;;;5.88;5.07;;;5.40;1.00;;;;;;4966133;28;20396;-85
2023/10/16 07:43:49;;;;;;;5.25;4.05;;;5.50;1.00;;;;;;4961669;28;20941;-86
2023/10/16 07:46:27;;;;;;;6.30;4.23;;;5.60;1.00;;;;;;4964233;28;20410;-86
2023/10/16 07:48:53;;;;;;;6.95;5.82;;;5.80;1.00;;;;;;4976820;28;20428;-86
2023/10/16 07:51:25;;;;;;;5.75;4.70;;;5.90;1.00;;;;;;4966346;28;20423;-86
2023/10/16 07:53:51;;;;;;;6.80;5.20;;;5.90;1.00;;;;;;4971619;28;20454;-86
2023/10/16 07:56:19;;;;;;;5.80;3.27;;;6.20;1.00;;;;;;4974651;28;20399;-85
2023/10/16 07:58:48;;;;;;;3.67;3.38;;;6.20;1.00;;;;;;4972406;28;20459;-85
2023/10/16 08:03:41;;;;;;;5.95;3.63;;;6.10;1.00;;;;;;4981964;28;20446;-85
2023/10/16 08:06:12;;;;;;;4.97;4.27;;;6.30;1.00;;;;;;4980326;28;20395;-86
2023/10/16 08:08:42;;;;;;;4.43;3.55;;;6.40;1.00;;;;;;4970936;28;20414;-86
2023/10/16 08:11:13;;;;;;;5.00;3.65;;;6.40;1.00;;;;;;4982826;28;20393;-85
2023/10/16 08:13:48;;;;;;;4.45;4.00;;;6.40;1.00;;;;;;4961442;28;20408;-86
2023/10/16 08:16:19;;;;;;;5.55;3.20;;;6.50;1.00;;;;;;4970759;28;20527;-85
2023/10/16 08:18:49;;;;;;;4.53;3.40;;;6.50;1.00;;;;;;4969067;28;20418;-85
2023/10/16 08:21:24;;;;;;;3.95;3.35;;;6.50;1.00;;;;;;4960234;28;20381;-85
2023/10/16 08:23:58;;;;;;;3.83;3.23;;;6.50;1.00;;;;;;4976005;28;20493;-84
2023/10/16 08:26:30;;;;;;;5.15;3.60;;;6.60;1.00;;;;;;4996557;28;20387;-85
2023/10/16 08:29:12;;;;;;;4.90;3.97;;;6.60;1.00;;;;;;4977141;28;20468;-85
2023/10/16 08:31:45;;;;;;;3.75;3.25;;;6.60;1.00;;;;;;4963242;28;20404;-86
2023/10/16 08:34:21;;;;;;;4.32;3.92;;;6.60;1.00;;;;;;4975969;28;20416;-85
2023/10/16 08:36:51;;;;;;;4.82;4.43;;;6.70;1.00;;;;;;4972244;28;20415;-85
2023/10/16 08:39:21;;;;;;;7.35;4.93;;;6.80;1.00;;;;;;4955449;28;20511;-85
2023/10/16 08:42:32;;;;;;;4.60;4.10;;;6.80;1.00;;;;;;4973868;28;20419;-85
2023/10/16 08:44:34;;;;;;;4.97;4.07;;;6.90;1.00;;;;;;4961547;28;20506;-86
2023/10/16 08:49:26;;;;;;;4.75;3.60;;;7.30;1.00;;;;;;4976262;28;20420;-85
2023/10/16 08:51:55;;;;;;;5.55;3.60;;;7.30;1.00;;;;;;4959341;28;20411;-85
2023/10/16 08:54:45;;;;;;;4.88;3.83;;;7.20;1.00;;;;;;4961551;28;20460;-86
2023/10/16 08:57:12;;;;;;;4.68;3.72;;;7.20;1.00;;;;;;4959231;28;20912;-85
2023/10/16 08:59:38;;;;;;;6.25;3.70;;;7.20;1.00;;;;;;4980076;28;20455;-84
2023/10/16 09:02:11;;;;;;;3.33;3.00;;;7.30;1.00;;;;;;4973163;28;20439;-86
2023/10/16 09:04:38;;;;;;;6.18;3.80;;;7.40;1.00;;;;;;4984516;28;20408;-86
2023/10/16 09:07:04;;;;;;;4.68;3.50;;;7.40;1.00;;;;;;4982884;28;20730;-86
2023/10/16 09:09:31;;;;;;;5.40;3.58;;;7.60;1.00;;;;;;4959916;28;20419;-86
2023/10/16 09:12:03;;;;;;;5.40;3.50;;;7.70;1.00;;;;;;4959305;28;20396;-86
2023/10/16 09:14:30;;;;;;;5.30;3.77;;;7.80;1.00;;;;;;4958541;28;20420;-86
2023/10/16 09:16:59;;;;;;;4.13;3.20;;;8.00;1.00;;;;;;4958697;28;20920;-85
2023/10/16 09:19:34;;;;;;;4.18;3.38;;;8.10;1.00;;;;;;4975796;28;20400;-85
2023/10/16 09:22:08;;;;;;;3.92;3.53;;;8.10;1.00;;;;;;4957822;28;20396;-85
2023/10/16 09:24:35;;;;;;;3.90;3.50;;;8.30;1.00;;;;;;4975244;28;20499;-85
2023/10/16 09:27:10;;;;;;;4.07;3.13;;;8.20;1.00;;;;;;4975181;28;20404;-85
2023/10/16 09:29:35;;;;;;;4.15;3.35;;;8.30;1.00;;;;;;4957899;28;20480;-85
2023/10/16 09:32:02;;;;;;;3.70;3.15;;;8.40;1.00;;;;;;4957370;28;20483;-86
2023/10/16 09:34:28;;;;;;;4.93;3.40;;;8.40;1.00;;;;;;4975131;28;20475;-85
2023/10/16 09:39:46;;;;;;;3.53;2.55;;;8.60;1.00;;;;;;4975513;28;20392;-85
2023/10/16 09:42:12;;;;;;;5.55;3.03;;;8.90;1.00;;;;;;4957240;28;20892;-84
2023/10/16 09:44:40;;;;;;;3.20;2.70;;;8.70;1.00;;;;;;4975465;28;20498;-84
2023/10/16 09:47:25;;;;;;;4.32;2.80;;;9.10;1.00;;;;;;4957649;28;20479;-84
2023/10/16 09:49:54;;;;;;;2.77;2.30;;;9.10;1.00;;;;;;4957754;28;20999;-84
2023/10/16 09:52:22;;;;;;;4.60;2.50;;;9.30;1.00;;;;;;4956657;28;20974;-84
2023/10/16 09:54:48;;;;;;;3.15;2.70;;;9.40;1.00;;;;;;4974797;28;20491;-84
2023/10/16 09:57:19;;;;;;;4.72;2.90;;;9.20;1.00;;;;;;4956738;28;20404;-84
2023/10/16 09:59:45;;;;;;;2.75;2.20;;;9.70;1.00;;;;;;4957470;28;20397;-84
2023/10/16 10:02:18;;;;;;;3.10;2.50;;;9.50;1.00;;;;;;4956306;28;20443;-84
2023/10/16 10:04:53;;;;;;;3.95;2.33;;;9.60;1.00;;;;;;4971166;28;20440;-85
2023/10/16 10:07:22;;;;;;;5.50;2.67;;;9.80;1.00;;;;;;4972561;28;20415;-83
2023/10/16 10:09:53;;;;;;;3.92;2.50;;;9.70;1.00;;;;;;4992866;28;20392;-84
2023/10/16 10:12:42;;;;;;;2.70;2.50;;;9.50;1.00;;;;;;4963404;28;20389;-85
2023/10/16 10:15:28;;;;;;;3.85;2.60;;;10.00;1.00;;;;;;4974326;28;20407;-84
2023/10/16 10:17:56;;;;;;;3.33;2.60;;;10.00;1.00;;;;;;4974347;28;20406;-84
2023/10/16 10:20:40;;;;;;;4.18;2.58;;;10.10;1.00;;;;;;4956935;28;20757;-85
2023/10/16 10:23:08;;;;;;;3.28;2.50;;;10.20;1.00;;;;;;4956111;28;20936;-85
2023/10/16 10:25:41;;;;;;;3.78;2.30;;;10.30;1.00;;;;;;4974076;28;20812;-85
2023/10/16 10:28:32;;;;;;;4.40;2.20;;;10.30;1.00;;;;;;4956567;28;20451;-85
2023/10/16 10:31:07;;;;;;;3.10;2.37;;;10.30;1.00;;;;;;4956650;28;20419;-85
2023/10/16 10:33:37;;;;;;;3.17;2.80;;;10.60;1.00;;;;;;4955748;28;20503;-85
2023/10/16 10:36:27;;;;;;;3.58;2.60;;;10.60;1.00;;;;;;4957799;28;20396;-85
2023/10/16 10:39:21;;;;;;;3.45;2.65;;;10.50;1.00;;;;;;4974003;28;20384;-85
2023/10/16 10:41:58;;;;;;;2.50;2.20;;;10.80;1.00;;;;;;4973369;28;20392;-85
2023/10/16 10:44:44;;;;;;;2.80;2.20;;;10.90;1.00;;;;;;4956233;28;20456;-85
2023/10/16 10:47:30;;;;;;;2.67;2.40;;;11.10;1.00;;;;;;4955912;28;22066;-84
2023/10/16 10:49:59;;;;;;;2.23;2.03;;;11.30;1.00;;;;;;4979027;28;20470;-85
2023/10/16 10:52:30;;;;;;;3.60;2.22;;;11.50;1.00;;;;;;4974820;28;20412;-85
2023/10/16 10:55:00;;;;;;;4.57;2.38;;;12.10;1.00;;;;;;4966761;28;20829;-85
2023/10/16 10:57:26;;;;;;;2.90;1.83;;;12.10;1.00;;;;;;4967199;28;20469;-85
2023/10/16 10:59:56;;;;;;;2.65;1.70;;;12.20;1.00;;;;;;4978955;28;20788;-85
2023/10/16 11:02:48;;;;;;;3.40;1.80;;;11.80;1.00;;;;;;4970054;28;20388;-85
2023/10/16 11:05:22;;;;;;;1.77;1.55;;;12.90;1.00;;;;;;4987983;28;20403;-86
2023/10/16 11:08:35;;;;;;;2.65;1.75;;;13.40;1.00;;;;;;4976584;28;20410;-86
2023/10/16 11:10:41;;;;;;;2.60;1.70;;;14.50;1.00;;;;;;4974239;28;20461;-86
2023/10/16 11:13:07;;;;;;;3.00;1.50;;;15.90;1.00;;;;;;4969937;28;20892;-85
2023/10/16 11:15:32;;;;;;;2.80;2.00;;;15.80;1.00;;;;;;4973739;28;20396;-87
2023/10/16 11:18:05;;;;;;;1.70;1.40;;;14.70;1.00;;;;;;4956081;28;20396;-87
2023/10/16 11:20:36;;;;;;;3.15;1.35;;;16.60;1.00;;;;;;4972922;28;20400;-87
2023/10/16 11:23:12;;;;;;;2.10;1.55;;;17.30;1.00;;;;;;4955998;28;20416;-87
2023/10/16 11:25:45;;;;;;;2.42;1.60;;;17.10;1.00;;;;;;4973062;28;20471;-88
2023/10/16 11:28:17;;;;;;;2.22;1.30;;;14.90;1.00;;;;;;4956050;28;20392;-87
2023/10/16 11:30:44;;;;;;;2.90;1.40;;;18.50;1.00;;;;;;4955585;28;21002;-87
2023/10/16 11:33:12;;;;;;;3.10;1.40;;;16.90;1.00;;;;;;4955969;28;20407;-88
2023/10/16 11:35:42;;;;;;;1.52;1.30;;;16.70;1.00;;;;;;4973696;28;20427;-88
2023/10/16 11:38:16;;;;;;;2.10;1.40;;;16.80;1.00;;;;;;4956025;28;20809;-88
2023/10/16 11:40:42;;;;;;;2.13;1.30;;;18.70;1.00;;;;;;4956581;28;20808;-87
2023/10/16 11:43:19;;;;;;;2.63;1.63;;;17.30;1.00;;;;;;4955715;28;20420;-88
2023/10/16 11:45:53;;;;;;;1.30;1.00;;;17.00;1.00;;;;;;4955243;28;20400;-86
2023/10/16 11:51:06;;;;;;;1.93;1.20;;;17.10;1.00;;;;;;4975106;28;20445;-86
2023/10/16 11:53:34;;;;;;;2.42;1.23;;;19.20;1.00;;;;;;4959934;28;20412;-89
2023/10/16 11:56:01;;;;;;;3.00;1.45;;;19.90;1.00;;;;;;4957853;28;20892;-88
2023/10/16 11:58:27;;;;;;;2.00;1.17;;;17.50;1.00;;;;;;4955703;28;20967;-88
2023/10/16 12:00:54;;;;;;;2.23;1.40;;;16.90;1.00;;;;;;4956051;28;20392;-88
2023/10/16 12:03:23;;;;;;;1.42;1.30;;;16.10;1.00;;;;;;4954193;28;21029;-89
2023/10/16 12:05:50;;;;;;;2.03;1.50;;;17.80;1.00;;;;;;4954863;28;20404;-88
2023/10/16 12:08:18;;;;;;;3.13;1.10;;;16.60;1.00;;;;;;4961543;28;20393;-88
2023/10/16 12:10:46;;;;;;;2.50;1.40;;;16.60;1.00;;;;;;4963830;28;20388;-88
2023/10/16 12:13:12;;;;;;;3.00;1.30;;;16.50;1.00;;;;;;4958480;28;20848;-88
2023/10/16 12:15:38;;;;;;;2.45;1.23;;;16.70;1.00;;;;;;4974829;28;20439;-88
2023/10/16 12:18:04;;;;;;;3.10;1.70;;;16.10;1.00;;;;;;4958957;28;20392;-88
2023/10/16 12:20:30;;;;;;;2.78;1.55;;;17.40;1.00;;;;;;4981938;28;20400;-88
2023/10/16 12:22:56;;;;;;;3.67;1.17;;;16.40;1.00;;;;;;4966613;28;20412;-88
2023/10/16 12:25:23;;;;;;;1.90;1.30;;;15.90;1.00;;;;;;4983690;28;20394;-87
2023/10/16 12:27:50;;;;;;;1.88;1.40;;;15.40;1.00;;;;;;4966012;28;20396;-88
2023/10/16 12:30:16;;;;;;;1.43;1.00;;;15.50;1.00;;;;;;4964817;28;20406;-88
2023/10/16 12:32:42;;;;;;;2.73;1.10;;;17.50;1.00;;;;;;4986435;28;20402;-88
2023/10/16 12:35:09;;;;;;;4.23;1.40;;;18.90;1.00;;;;;;4958767;28;20479;-87
2023/10/16 12:37:35;;;;;;;3.50;1.60;;;17.20;1.00;;;;;;4961569;28;20781;-88
2023/10/16 12:40:24;;;;;;;2.45;1.30;;;15.60;1.00;;;;;;4959957;28;20396;-88
2023/10/16 12:42:47;;;;;;;3.08;1.30;;;16.50;1.00;;;;;;4975723;28;20400;-88
2023/10/16 12:45:12;;;;;;;2.50;1.20;;;16.10;1.00;;;;;;4976107;28;20423;-88
2023/10/16 12:47:38;;;;;;;1.80;1.30;;;16.60;1.00;;;;;;4961100;28;20399;-88
2023/10/16 12:50:05;;;;;;;2.40;1.37;;;16.60;1.00;;;;;;4963447;28;20411;-88
2023/10/16 12:52:31;;;;;;;2.47;1.35;;;16.20;1.00;;;;;;4959373;28;20408;-88
2023/10/16 12:54:57;;;;;;;2.40;1.30;;;17.50;1.00;;;;;;4962359;28;20427;-86
2023/10/16 12:57:24;;;;;;;1.60;1.30;;;17.30;1.00;;;;;;4990416;28;20392;-86
2023/10/16 12:59:50;;;;;;;1.80;1.23;;;16.50;1.00;;;;;;4962570;28;20400;-87
2023/10/16 13:02:25;;;;;;;2.70;1.20;;;17.50;1.00;;;;;;4960005;28;20400;-87
2023/10/16 13:04:51;;;;;;;2.72;1.30;;;16.60;1.00;;;;;;4959382;28;20416;-86
2023/10/16 13:07:17;;;;;;;1.48;1.17;;;18.00;1.00;;;;;;4959002;28;20393;-87
2023/10/16 13:09:43;;;;;;;2.20;1.30;;;18.90;1.00;;;;;;4958894;28;20388;-86
2023/10/16 13:12:10;;;;;;;2.47;1.40;;;18.60;1.00;;;;;;4958073;28;20393;-86
2023/10/16 13:14:35;;;;;;;1.38;1.10;;;17.90;1.00;;;;;;4958454;28;20458;-86
2023/10/16 13:17:01;;;;;;;2.50;1.40;;;18.10;1.00;;;;;;4958921;28;20420;-87
2023/10/16 13:19:27;;;;;;;1.90;1.38;;;17.40;1.00;;;;;;4982378;28;20409;-87
2023/10/16 13:21:53;;;;;;;1.60;1.30;;;19.50;1.00;;;;;;4970801;28;20451;-87
2023/10/16 13:24:23;;;;;;;1.70;1.20;;;16.80;1.00;;;;;;4959770;28;20451;-86
2023/10/16 13:26:52;;;;;;;2.97;1.40;;;16.30;1.00;;;;;;4962385;28;20803;-88
2023/10/16 13:29:17;;;;;;;3.50;1.70;;;16.80;1.00;;;;;;4964906;28;20384;-87
2023/10/16 13:31:46;;;;;;;2.40;1.17;;;16.30;1.00;;;;;;4997915;28;20411;-87
2023/10/16 13:34:15;;;;;;;1.40;1.10;;;17.50;1.00;;;;;;4969186;28;20400;-86
2023/10/16 13:36:47;;;;;;;2.50;1.20;;;18.90;1.00;;;;;;4955797;28;20473;-87
2023/10/16 13:39:14;;;;;;;1.02;0.88;;;16.70;1.00;;;;;;4969698;28;20400;-87
2023/10/16 13:42:14;;;;;;;1.10;1.00;;;16.00;1.00;;;;;;4956313;28;20408;-87
2023/10/16 13:44:32;;;;;;;1.80;1.20;;;18.10;1.00;;;;;;4984647;28;20422;-87
2023/10/16 13:46:59;;;;;;;2.07;1.00;;;17.10;1.00;;;;;;4962988;28;20445;-86
2023/10/16 13:49:24;;;;;;;1.80;1.10;;;16.20;1.00;;;;;;4981484;28;20978;-86
2023/10/16 13:51:53;;;;;;;3.27;1.10;;;15.70;1.00;;;;;;4970725;28;20401;-86
2023/10/16 13:54:18;;;;;;;2.20;0.90;;;16.20;1.00;;;;;;4959716;28;20407;-87
2023/10/16 13:56:48;;;;;;;1.60;1.10;;;15.90;1.00;;;;;;4965758;28;20407;-86
2023/10/16 13:59:15;;;;;;;1.30;0.90;;;16.00;1.00;;;;;;4969602;28;20399;-87
2023/10/16 14:01:42;;;;;;;2.15;1.40;;;16.30;1.00;;;;;;4958579;28;20400;-86
2023/10/16 14:04:14;;;;;;;1.98;1.00;;;16.70;1.00;;;;;;4974719;28;20439;-87
2023/10/16 14:06:40;;;;;;;2.40;1.00;;;16.20;1.00;;;;;;4957051;28;20479;-86
2023/10/16 14:09:50;;;;;;;2.10;1.20;;;16.70;1.00;;;;;;4957203;28;20473;-86
2023/10/16 14:11:59;;;;;;;2.45;1.20;;;17.60;1.00;;;;;;4966260;28;20407;-85
2023/10/16 14:14:32;;;;;;;1.40;1.10;;;16.20;1.00;;;;;;4957250;28;20911;-86
2023/10/16 14:17:16;;;;;;;1.80;1.20;;;16.20;1.00;;;;;;4957531;28;20401;-86
2023/10/16 14:19:47;;;;;;;2.10;1.08;;;16.60;1.00;;;;;;4957005;28;20392;-85
2023/10/16 14:22:15;;;;;;;1.58;1.10;;;16.10;1.00;;;;;;4956723;28;20412;-87
2023/10/16 14:24:44;;;;;;;2.97;1.30;;;16.40;1.00;;;;;;4956612;28;20408;-87
2023/10/16 14:27:14;;;;;;;1.77;1.10;;;16.40;1.00;;;;;;4956687;28;20837;-86
2023/10/16 14:29:45;;;;;;;1.95;1.10;;;15.50;1.00;;;;;;4957025;28;20483;-86
2023/10/16 14:32:10;;;;;;;1.60;1.30;;;15.90;1.00;;;;;;4973626;28;20384;-87
2023/10/16 14:34:36;;;;;;;1.67;1.20;;;15.60;1.00;;;;;;4974214;28;20399;-86
2023/10/16 14:37:05;;;;;;;3.10;1.17;;;16.00;1.00;;;;;;4956411;28;20918;-87
2023/10/16 14:39:31;;;;;;;4.40;1.13;;;16.90;1.00;;;;;;4961080;28;20408;-87
2023/10/16 14:42:01;;;;;;;1.40;1.10;;;15.60;1.00;;;;;;4964490;28;20495;-86
2023/10/16 14:44:27;;;;;;;1.80;1.30;;;16.30;1.00;;;;;;4963043;28;20416;-85
2023/10/16 14:46:56;;;;;;;2.42;1.40;;;15.90;1.00;;;;;;4967638;28;20403;-86
2023/10/16 14:49:25;;;;;;;1.48;1.10;;;15.30;1.00;;;;;;4958379;28;20404;-87
2023/10/16 14:51:51;;;;;;;1.55;1.30;;;14.70;1.00;;;;;;4956733;28;20891;-86
2023/10/16 14:54:16;;;;;;;1.70;1.25;;;15.50;1.00;;;;;;4957336;28;20440;-86
2023/10/16 14:56:44;;;;;;;2.10;1.40;;;16.20;1.00;;;;;;4971363;28;20764;-85
2023/10/16 14:59:22;;;;;;;2.05;1.45;;;15.30;1.00;;;;;;4957834;28;20404;-86
2023/10/16 15:01:50;;;;;;;2.10;1.50;;;15.10;1.00;;;;;;4962145;28;20383;-85
2023/10/16 15:04:17;;;;;;;2.37;1.40;;;15.40;1.00;;;;;;4956016;28;20482;-86
2023/10/16 15:06:44;;;;;;;2.60;1.50;;;15.50;1.00;;;;;;4955188;28;20392;-85
2023/10/16 15:09:15;;;;;;;2.55;1.50;;;15.60;1.00;;;;;;4956762;28;20987;-85
2023/10/16 15:11:41;;;;;;;1.50;1.20;;;15.00;1.00;;;;;;4967133;28;20396;-85
2023/10/16 15:14:07;;;;;;;1.57;1.17;;;14.60;1.00;;;;;;4976309;28;20406;-86
2023/10/16 15:16:32;;;;;;;2.58;1.40;;;14.90;1.00;;;;;;4955206;28;20400;-86
2023/10/16 15:18:58;;;;;;;1.77;1.40;;;14.90;1.00;;;;;;4956406;28;20493;-86